sensor_id;sensor_type;location;lat;lon;timestamp;P1;durP1;ratioP1;P2;durP2;ratioP2
20443;SDS011;10381;53.730;10.010;2024-01-11T00:00:16;28.23;;;13.68;;
20443;SDS011;10381;53.730;10.010;2024-01-11T00:04:19;23.58;;;12.95;;
20443;SDS011;10381;53.730;10.010;2024-01-11T00:08:19;26.30;;;12.90;;
20443;SDS011;10381;53.730;10.010;2024-01-11T00:12:19;34.27;;;15.17;;
20443;SDS011;10381;53.730;10.010;2024-01-11T00:16:20;15.80;;;10.43;;
20443;SDS011;10381;53.730;10.010;2024-01-11T00:20:20;28.83;;;12.25;;
20443;SDS011;10381;53.730;10.010;2024-01-11T00:24:20;25.17;;;10.57;;
20443;SDS011;10381;53.730;10.010;2024-01-11T00:28:20;26.27;;;13.17;;
20443;SDS011;10381;53.730;10.010;2024-01-11T00:32:21;24.48;;;11.23;;
20443;SDS011;10381;53.730;10.010;2024-01-11T00:36:21;27.87;;;12.30;;
20443;SDS011;10381;53.730;10.010;2024-01-11T00:40:22;31.70;;;10.57;;
20443;SDS011;10381;53.730;10.010;2024-01-11T00:44:22;26.27;;;10.90;;
20443;SDS011;10381;53.730;10.010;2024-01-11T00:48:22;30.90;;;11.90;;
20443;SDS011;10381;53.730;10.010;2024-01-11T00:52:22;25.23;;;11.97;;
20443;SDS011;10381;53.730;10.010;2024-01-11T00:56:23;34.87;;;12.43;;
20443;SDS011;10381;53.730;10.010;2024-01-11T01:00:23;19.87;;;9.87;;
20443;SDS011;10381;53.730;10.010;2024-01-11T01:04:23;28.33;;;14.30;;
20443;SDS011;10381;53.730;10.010;2024-01-11T01:08:23;39.83;;;11.97;;
20443;SDS011;10381;53.730;10.010;2024-01-11T01:12:24;35.70;;;13.93;;
20443;SDS011;10381;53.730;10.010;2024-01-11T01:16:27;34.45;;;13.63;;
20443;SDS011;10381;53.730;10.010;2024-01-11T01:20:27;17.50;;;10.23;;
20443;SDS011;10381;53.730;10.010;2024-01-11T01:24:27;24.10;;;11.67;;
20443;SDS011;10381;53.730;10.010;2024-01-11T01:28:27;28.43;;;13.23;;
20443;SDS011;10381;53.730;10.010;2024-01-11T01:32:29;22.60;;;10.85;;
20443;SDS011;10381;53.730;10.010;2024-01-11T01:36:30;21.38;;;11.20;;
20443;SDS011;10381;53.730;10.010;2024-01-11T01:40:30;31.43;;;11.03;;
20443;SDS011;10381;53.730;10.010;2024-01-11T01:44:31;22.85;;;9.52;;
20443;SDS011;10381;53.730;10.010;2024-01-11T01:48:33;36.03;;;13.38;;
20443;SDS011;10381;53.730;10.010;2024-01-11T01:52:34;42.72;;;13.35;;
20443;SDS011;10381;53.730;10.010;2024-01-11T01:56:34;25.83;;;11.25;;
20443;SDS011;10381;53.730;10.010;2024-01-11T02:00:35;18.38;;;7.97;;
20443;SDS011;10381;53.730;10.010;2024-01-11T02:04:35;26.98;;;11.18;;
20443;SDS011;10381;53.730;10.010;2024-01-11T02:08:35;30.58;;;9.88;;
20443;SDS011;10381;53.730;10.010;2024-01-11T02:12:36;24.73;;;9.02;;
20443;SDS011;10381;53.730;10.010;2024-01-11T02:16:40;23.67;;;10.88;;
20443;SDS011;10381;53.730;10.010;2024-01-11T02:20:40;20.23;;;9.87;;
20443;SDS011;10381;53.730;10.010;2024-01-11T02:24:40;32.45;;;13.45;;
20443;SDS011;10381;53.730;10.010;2024-01-11T02:28:44;17.93;;;8.13;;
20443;SDS011;10381;53.730;10.010;2024-01-11T02:32:48;23.33;;;9.18;;
20443;SDS011;10381;53.730;10.010;2024-01-11T02:36:49;18.55;;;10.85;;
20443;SDS011;10381;53.730;10.010;2024-01-11T02:40:50;31.05;;;13.55;;
20443;SDS011;10381;53.730;10.010;2024-01-11T02:44:50;22.67;;;9.70;;
20443;SDS011;10381;53.730;10.010;2024-01-11T02:48:51;25.27;;;10.20;;
20443;SDS011;10381;53.730;10.010;2024-01-11T02:52:52;20.17;;;10.27;;
20443;SDS011;10381;53.730;10.010;2024-01-11T02:56:52;26.10;;;8.63;;
20443;SDS011;10381;53.730;10.010;2024-01-11T03:00:53;12.60;;;7.67;;
20443;SDS011;10381;53.730;10.010;2024-01-11T03:04:53;15.50;;;9.90;;
20443;SDS011;10381;53.730;10.010;2024-01-11T03:08:53;27.83;;;9.95;;
20443;SDS011;10381;53.730;10.010;2024-01-11T03:12:54;17.33;;;8.95;;
20443;SDS011;10381;53.730;10.010;2024-01-11T03:16:54;17.30;;;10.13;;
20443;SDS011;10381;53.730;10.010;2024-01-11T03:20:54;23.13;;;8.80;;
20443;SDS011;10381;53.730;10.010;2024-01-11T03:24:54;25.50;;;12.03;;
20443;SDS011;10381;53.730;10.010;2024-01-11T03:28:55;15.77;;;9.43;;
20443;SDS011;10381;53.730;10.010;2024-01-11T03:32:55;20.30;;;10.00;;
20443;SDS011;10381;53.730;10.010;2024-01-11T03:36:55;20.70;;;11.40;;
20443;SDS011;10381;53.730;10.010;2024-01-11T03:40:55;15.73;;;7.83;;
20443;SDS011;10381;53.730;10.010;2024-01-11T03:44:56;12.80;;;9.25;;
20443;SDS011;10381;53.730;10.010;2024-01-11T03:48:56;29.35;;;11.10;;
20443;SDS011;10381;53.730;10.010;2024-01-11T03:52:57;20.92;;;10.95;;
20443;SDS011;10381;53.730;10.010;2024-01-11T03:56:57;28.08;;;12.30;;
20443;SDS011;10381;53.730;10.010;2024-01-11T04:00:57;25.42;;;9.18;;
20443;SDS011;10381;53.730;10.010;2024-01-11T04:04:58;21.75;;;12.07;;
20443;SDS011;10381;53.730;10.010;2024-01-11T04:08:58;17.02;;;10.68;;
20443;SDS011;10381;53.730;10.010;2024-01-11T04:12:58;25.95;;;8.95;;
20443;SDS011;10381;53.730;10.010;2024-01-11T04:16:59;37.00;;;14.25;;
20443;SDS011;10381;53.730;10.010;2024-01-11T04:20:59;23.03;;;8.50;;
20443;SDS011;10381;53.730;10.010;2024-01-11T04:24:59;23.88;;;10.88;;
20443;SDS011;10381;53.730;10.010;2024-01-11T04:29:00;30.20;;;13.38;;
20443;SDS011;10381;53.730;10.010;2024-01-11T04:33:00;22.73;;;10.35;;
20443;SDS011;10381;53.730;10.010;2024-01-11T04:37:01;26.10;;;11.73;;
20443;SDS011;10381;53.730;10.010;2024-01-11T04:41:01;34.50;;;12.15;;
20443;SDS011;10381;53.730;10.010;2024-01-11T04:45:01;20.10;;;8.37;;
20443;SDS011;10381;53.730;10.010;2024-01-11T04:49:02;24.23;;;9.68;;
20443;SDS011;10381;53.730;10.010;2024-01-11T04:53:02;17.57;;;8.17;;
20443;SDS011;10381;53.730;10.010;2024-01-11T04:57:02;28.38;;;11.13;;
20443;SDS011;10381;53.730;10.010;2024-01-11T05:01:03;10.48;;;7.28;;
20443;SDS011;10381;53.730;10.010;2024-01-11T05:05:05;23.90;;;10.93;;
20443;SDS011;10381;53.730;10.010;2024-01-11T05:09:06;27.00;;;10.35;;
20443;SDS011;10381;53.730;10.010;2024-01-11T05:13:07;18.40;;;9.52;;
20443;SDS011;10381;53.730;10.010;2024-01-11T05:17:07;11.30;;;6.47;;
20443;SDS011;10381;53.730;10.010;2024-01-11T05:21:07;43.00;;;9.85;;
20443;SDS011;10381;53.730;10.010;2024-01-11T05:25:08;11.20;;;6.57;;
20443;SDS011;10381;53.730;10.010;2024-01-11T05:29:08;24.23;;;6.88;;
20443;SDS011;10381;53.730;10.010;2024-01-11T05:33:09;13.43;;;5.25;;
20443;SDS011;10381;53.730;10.010;2024-01-11T05:37:09;12.93;;;6.28;;
20443;SDS011;10381;53.730;10.010;2024-01-11T05:41:09;12.40;;;6.30;;
20443;SDS011;10381;53.730;10.010;2024-01-11T05:45:10;17.40;;;5.53;;
20443;SDS011;10381;53.730;10.010;2024-01-11T05:49:10;8.57;;;4.37;;
20443;SDS011;10381;53.730;10.010;2024-01-11T05:53:11;15.82;;;6.70;;
20443;SDS011;10381;53.730;10.010;2024-01-11T05:57:12;13.88;;;4.13;;
20443;SDS011;10381;53.730;10.010;2024-01-11T06:01:13;9.32;;;5.05;;
20443;SDS011;10381;53.730;10.010;2024-01-11T06:05:13;13.10;;;5.07;;
20443;SDS011;10381;53.730;10.010;2024-01-11T06:09:13;15.30;;;4.80;;
20443;SDS011;10381;53.730;10.010;2024-01-11T06:13:13;9.50;;;4.37;;
20443;SDS011;10381;53.730;10.010;2024-01-11T06:17:14;9.57;;;4.47;;
20443;SDS011;10381;53.730;10.010;2024-01-11T06:21:14;20.98;;;5.38;;
20443;SDS011;10381;53.730;10.010;2024-01-11T06:25:17;11.48;;;5.78;;
20443;SDS011;10381;53.730;10.010;2024-01-11T06:29:19;19.55;;;6.53;;
20443;SDS011;10381;53.730;10.010;2024-01-11T06:33:19;5.50;;;4.65;;
20443;SDS011;10381;53.730;10.010;2024-01-11T06:37:20;32.35;;;6.45;;
20443;SDS011;10381;53.730;10.010;2024-01-11T06:41:21;31.40;;;6.95;;
20443;SDS011;10381;53.730;10.010;2024-01-11T06:45:21;40.92;;;7.10;;
20443;SDS011;10381;53.730;10.010;2024-01-11T06:49:21;72.32;;;6.93;;
20443;SDS011;10381;53.730;10.010;2024-01-11T06:53:22;11.63;;;5.85;;
20443;SDS011;10381;53.730;10.010;2024-01-11T06:57:22;14.70;;;6.63;;
20443;SDS011;10381;53.730;10.010;2024-01-11T07:01:22;7.88;;;5.47;;
20443;SDS011;10381;53.730;10.010;2024-01-11T07:05:23;10.00;;;4.57;;
20443;SDS011;10381;53.730;10.010;2024-01-11T07:09:23;20.15;;;4.35;;
20443;SDS011;10381;53.730;10.010;2024-01-11T07:13:23;16.50;;;5.50;;
20443;SDS011;10381;53.730;10.010;2024-01-11T07:17:24;6.40;;;3.60;;
20443;SDS011;10381;53.730;10.010;2024-01-11T07:21:25;8.35;;;4.13;;
20443;SDS011;10381;53.730;10.010;2024-01-11T07:25:29;13.45;;;3.03;;
20443;SDS011;10381;53.730;10.010;2024-01-11T07:29:30;32.75;;;7.00;;
20443;SDS011;10381;53.730;10.010;2024-01-11T07:33:30;16.35;;;6.13;;
20443;SDS011;10381;53.730;10.010;2024-01-11T07:37:30;14.07;;;7.27;;
20443;SDS011;10381;53.730;10.010;2024-01-11T07:41:31;16.70;;;7.33;;
20443;SDS011;10381;53.730;10.010;2024-01-11T07:45:31;20.27;;;6.40;;
20443;SDS011;10381;53.730;10.010;2024-01-11T07:49:31;14.68;;;5.05;;
20443;SDS011;10381;53.730;10.010;2024-01-11T07:53:32;11.93;;;4.10;;
20443;SDS011;10381;53.730;10.010;2024-01-11T07:57:32;6.73;;;4.40;;
20443;SDS011;10381;53.730;10.010;2024-01-11T08:01:34;17.45;;;4.70;;
20443;SDS011;10381;53.730;10.010;2024-01-11T08:05:35;21.20;;;7.80;;
20443;SDS011;10381;53.730;10.010;2024-01-11T08:09:35;23.05;;;6.53;;
20443;SDS011;10381;53.730;10.010;2024-01-11T08:13:36;33.15;;;10.30;;
20443;SDS011;10381;53.730;10.010;2024-01-11T08:17:46;13.02;;;5.88;;
20443;SDS011;10381;53.730;10.010;2024-01-11T08:21:47;11.25;;;6.18;;
20443;SDS011;10381;53.730;10.010;2024-01-11T08:25:47;12.20;;;5.63;;
20443;SDS011;10381;53.730;10.010;2024-01-11T08:29:47;10.20;;;5.63;;
20443;SDS011;10381;53.730;10.010;2024-01-11T08:33:47;12.63;;;4.80;;
20443;SDS011;10381;53.730;10.010;2024-01-11T08:37:48;10.82;;;5.43;;
20443;SDS011;10381;53.730;10.010;2024-01-11T08:41:49;20.77;;;7.35;;
20443;SDS011;10381;53.730;10.010;2024-01-11T08:45:49;29.27;;;6.57;;
20443;SDS011;10381;53.730;10.010;2024-01-11T08:49:49;17.97;;;7.50;;
20443;SDS011;10381;53.730;10.010;2024-01-11T08:53:50;17.10;;;7.40;;
20443;SDS011;10381;53.730;10.010;2024-01-11T08:58:01;18.53;;;8.30;;
20443;SDS011;10381;53.730;10.010;2024-01-11T09:02:40;18.48;;;7.20;;
20443;SDS011;10381;53.730;10.010;2024-01-11T09:06:40;24.03;;;7.33;;
20443;SDS011;10381;53.730;10.010;2024-01-11T09:10:41;30.30;;;7.53;;
20443;SDS011;10381;53.730;10.010;2024-01-11T09:14:41;17.05;;;7.43;;
20443;SDS011;10381;53.730;10.010;2024-01-11T09:18:42;15.93;;;6.65;;
20443;SDS011;10381;53.730;10.010;2024-01-11T09:22:43;13.30;;;6.53;;
20443;SDS011;10381;53.730;10.010;2024-01-11T09:26:45;9.50;;;6.60;;
20443;SDS011;10381;53.730;10.010;2024-01-11T09:30:45;17.15;;;8.55;;
20443;SDS011;10381;53.730;10.010;2024-01-11T09:34:45;20.90;;;7.83;;
20443;SDS011;10381;53.730;10.010;2024-01-11T09:38:46;13.70;;;7.43;;
20443;SDS011;10381;53.730;10.010;2024-01-11T09:42:46;24.35;;;8.63;;
20443;SDS011;10381;53.730;10.010;2024-01-11T09:46:47;33.50;;;10.20;;
20443;SDS011;10381;53.730;10.010;2024-01-11T09:50:47;26.23;;;8.95;;
20443;SDS011;10381;53.730;10.010;2024-01-11T09:54:49;27.02;;;8.30;;
20443;SDS011;10381;53.730;10.010;2024-01-11T09:58:50;11.13;;;6.90;;
20443;SDS011;10381;53.730;10.010;2024-01-11T10:02:50;49.33;;;8.98;;
20443;SDS011;10381;53.730;10.010;2024-01-11T10:06:52;26.63;;;9.50;;
20443;SDS011;10381;53.730;10.010;2024-01-11T10:10:53;25.05;;;10.75;;
20443;SDS011;10381;53.730;10.010;2024-01-11T10:14:54;29.23;;;11.20;;
20443;SDS011;10381;53.730;10.010;2024-01-11T10:18:54;47.53;;;12.57;;
20443;SDS011;10381;53.730;10.010;2024-01-11T10:22:56;20.88;;;9.93;;
20443;SDS011;10381;53.730;10.010;2024-01-11T10:26:57;18.20;;;8.65;;
20443;SDS011;10381;53.730;10.010;2024-01-11T10:30:58;32.50;;;9.98;;
20443;SDS011;10381;53.730;10.010;2024-01-11T10:34:58;30.83;;;9.40;;
20443;SDS011;10381;53.730;10.010;2024-01-11T10:39:02;23.33;;;8.00;;
20443;SDS011;10381;53.730;10.010;2024-01-11T10:43:06;19.58;;;8.30;;
20443;SDS011;10381;53.730;10.010;2024-01-11T10:47:11;19.88;;;9.43;;
20443;SDS011;10381;53.730;10.010;2024-01-11T10:51:14;28.75;;;10.60;;
20443;SDS011;10381;53.730;10.010;2024-01-11T10:55:21;28.85;;;9.55;;
20443;SDS011;10381;53.730;10.010;2024-01-11T10:59:22;29.52;;;9.25;;
20443;SDS011;10381;53.730;10.010;2024-01-11T11:03:24;25.33;;;9.07;;
20443;SDS011;10381;53.730;10.010;2024-01-11T11:07:25;21.17;;;8.43;;
20443;SDS011;10381;53.730;10.010;2024-01-11T11:11:27;31.77;;;10.65;;
20443;SDS011;10381;53.730;10.010;2024-01-11T11:15:29;23.67;;;11.07;;
20443;SDS011;10381;53.730;10.010;2024-01-11T11:19:29;23.20;;;8.43;;
20443;SDS011;10381;53.730;10.010;2024-01-11T11:23:30;19.25;;;8.98;;
20443;SDS011;10381;53.730;10.010;2024-01-11T11:27:30;41.07;;;12.73;;
20443;SDS011;10381;53.730;10.010;2024-01-11T11:35:46;28.38;;;11.07;;
20443;SDS011;10381;53.730;10.010;2024-01-11T11:39:46;20.08;;;11.60;;
20443;SDS011;10381;53.730;10.010;2024-01-11T11:43:47;26.48;;;10.52;;
20443;SDS011;10381;53.730;10.010;2024-01-11T11:47:47;19.88;;;8.52;;
20443;SDS011;10381;53.730;10.010;2024-01-11T11:51:48;27.77;;;12.03;;
20443;SDS011;10381;53.730;10.010;2024-01-11T11:55:48;29.13;;;8.40;;
20443;SDS011;10381;53.730;10.010;2024-01-11T11:59:49;42.13;;;10.15;;
20443;SDS011;10381;53.730;10.010;2024-01-11T12:03:52;34.78;;;10.70;;
20443;SDS011;10381;53.730;10.010;2024-01-11T12:07:52;29.65;;;11.45;;
20443;SDS011;10381;53.730;10.010;2024-01-11T12:11:53;37.42;;;12.45;;
20443;SDS011;10381;53.730;10.010;2024-01-11T12:15:54;30.00;;;11.93;;
20443;SDS011;10381;53.730;10.010;2024-01-11T12:19:55;31.98;;;12.00;;
20443;SDS011;10381;53.730;10.010;2024-01-11T12:23:55;36.42;;;12.52;;
20443;SDS011;10381;53.730;10.010;2024-01-11T12:27:56;27.00;;;8.90;;
20443;SDS011;10381;53.730;10.010;2024-01-11T12:31:59;29.07;;;10.37;;
20443;SDS011;10381;53.730;10.010;2024-01-11T12:36:00;33.45;;;13.00;;
20443;SDS011;10381;53.730;10.010;2024-01-11T12:40:00;22.92;;;12.80;;
20443;SDS011;10381;53.730;10.010;2024-01-11T12:44:00;43.77;;;13.33;;
20443;SDS011;10381;53.730;10.010;2024-01-11T12:48:01;34.53;;;14.25;;
20443;SDS011;10381;53.730;10.010;2024-01-11T12:52:03;32.15;;;11.25;;
20443;SDS011;10381;53.730;10.010;2024-01-11T12:56:04;27.52;;;11.13;;
20443;SDS011;10381;53.730;10.010;2024-01-11T13:00:10;19.00;;;11.68;;
20443;SDS011;10381;53.730;10.010;2024-01-11T13:04:12;37.78;;;13.18;;
20443;SDS011;10381;53.730;10.010;2024-01-11T13:08:12;50.88;;;13.02;;
20443;SDS011;10381;53.730;10.010;2024-01-11T13:12:12;46.13;;;13.90;;
20443;SDS011;10381;53.730;10.010;2024-01-11T13:16:13;32.97;;;12.10;;
20443;SDS011;10381;53.730;10.010;2024-01-11T13:20:14;23.90;;;12.82;;
20443;SDS011;10381;53.730;10.010;2024-01-11T13:24:15;41.33;;;14.77;;
20443;SDS011;10381;53.730;10.010;2024-01-11T13:28:15;26.85;;;10.80;;
20443;SDS011;10381;53.730;10.010;2024-01-11T13:32:16;27.88;;;12.95;;
20443;SDS011;10381;53.730;10.010;2024-01-11T13:36:16;31.73;;;13.70;;
20443;SDS011;10381;53.730;10.010;2024-01-11T13:40:17;38.70;;;13.87;;
20443;SDS011;10381;53.730;10.010;2024-01-11T13:44:17;37.10;;;12.63;;
20443;SDS011;10381;53.730;10.010;2024-01-11T13:48:17;32.63;;;12.93;;
20443;SDS011;10381;53.730;10.010;2024-01-11T13:52:18;28.83;;;12.00;;
20443;SDS011;10381;53.730;10.010;2024-01-11T13:56:18;27.10;;;13.10;;
20443;SDS011;10381;53.730;10.010;2024-01-11T14:00:19;47.20;;;13.13;;
20443;SDS011;10381;53.730;10.010;2024-01-11T14:04:19;37.88;;;12.52;;
20443;SDS011;10381;53.730;10.010;2024-01-11T14:08:23;32.08;;;13.05;;
20443;SDS011;10381;53.730;10.010;2024-01-11T14:12:23;40.67;;;13.83;;
20443;SDS011;10381;53.730;10.010;2024-01-11T14:16:23;39.23;;;12.30;;
20443;SDS011;10381;53.730;10.010;2024-01-11T14:20:24;33.20;;;12.15;;
20443;SDS011;10381;53.730;10.010;2024-01-11T14:24:24;16.88;;;10.57;;
20443;SDS011;10381;53.730;10.010;2024-01-11T14:28:25;33.83;;;10.63;;
20443;SDS011;10381;53.730;10.010;2024-01-11T14:32:25;30.80;;;11.60;;
20443;SDS011;10381;53.730;10.010;2024-01-11T14:36:27;26.38;;;11.77;;
20443;SDS011;10381;53.730;10.010;2024-01-11T14:40:27;17.53;;;9.40;;
20443;SDS011;10381;53.730;10.010;2024-01-11T14:44:29;20.15;;;8.75;;
20443;SDS011;10381;53.730;10.010;2024-01-11T14:48:29;19.00;;;8.82;;
20443;SDS011;10381;53.730;10.010;2024-01-11T14:52:30;22.80;;;8.32;;
20443;SDS011;10381;53.730;10.010;2024-01-11T14:56:31;21.52;;;9.50;;
20443;SDS011;10381;53.730;10.010;2024-01-11T15:00:31;15.48;;;7.40;;
20443;SDS011;10381;53.730;10.010;2024-01-11T15:04:31;20.15;;;9.25;;
20443;SDS011;10381;53.730;10.010;2024-01-11T15:08:32;25.83;;;10.85;;
20443;SDS011;10381;53.730;10.010;2024-01-11T15:12:32;16.90;;;8.53;;
20443;SDS011;10381;53.730;10.010;2024-01-11T15:16:33;20.33;;;8.05;;
20443;SDS011;10381;53.730;10.010;2024-01-11T15:20:34;24.27;;;9.30;;
20443;SDS011;10381;53.730;10.010;2024-01-11T15:24:34;14.53;;;6.60;;
20443;SDS011;10381;53.730;10.010;2024-01-11T15:28:35;12.43;;;7.13;;
20443;SDS011;10381;53.730;10.010;2024-01-11T15:32:35;22.75;;;9.02;;
20443;SDS011;10381;53.730;10.010;2024-01-11T15:36:36;23.17;;;7.93;;
20443;SDS011;10381;53.730;10.010;2024-01-11T15:40:39;14.75;;;8.77;;
20443;SDS011;10381;53.730;10.010;2024-01-11T15:44:40;13.17;;;7.97;;
20443;SDS011;10381;53.730;10.010;2024-01-11T15:48:40;18.47;;;8.33;;
20443;SDS011;10381;53.730;10.010;2024-01-11T15:52:40;33.53;;;7.53;;
20443;SDS011;10381;53.730;10.010;2024-01-11T15:56:41;21.50;;;8.15;;
20443;SDS011;10381;53.730;10.010;2024-01-11T16:00:41;16.80;;;7.03;;
20443;SDS011;10381;53.730;10.010;2024-01-11T16:04:43;17.90;;;6.90;;
20443;SDS011;10381;53.730;10.010;2024-01-11T16:08:45;9.10;;;7.93;;
20443;SDS011;10381;53.730;10.010;2024-01-11T16:12:47;12.40;;;7.90;;
20443;SDS011;10381;53.730;10.010;2024-01-11T16:16:47;21.38;;;7.15;;
20443;SDS011;10381;53.730;10.010;2024-01-11T16:20:48;7.37;;;6.63;;
20443;SDS011;10381;53.730;10.010;2024-01-11T16:24:50;17.10;;;8.20;;
20443;SDS011;10381;53.730;10.010;2024-01-11T16:28:51;15.53;;;8.27;;
20443;SDS011;10381;53.730;10.010;2024-01-11T16:32:51;34.10;;;11.50;;
20443;SDS011;10381;53.730;10.010;2024-01-11T16:36:51;29.23;;;11.40;;
20443;SDS011;10381;53.730;10.010;2024-01-11T16:40:51;36.30;;;14.63;;
20443;SDS011;10381;53.730;10.010;2024-01-11T16:44:54;38.03;;;16.42;;
20443;SDS011;10381;53.730;10.010;2024-01-11T16:48:54;31.35;;;14.75;;
20443;SDS011;10381;53.730;10.010;2024-01-11T16:52:54;24.30;;;10.07;;
20443;SDS011;10381;53.730;10.010;2024-01-11T16:56:55;35.85;;;14.80;;
20443;SDS011;10381;53.730;10.010;2024-01-11T17:00:55;38.70;;;13.03;;
20443;SDS011;10381;53.730;10.010;2024-01-11T17:04:56;27.52;;;11.35;;
20443;SDS011;10381;53.730;10.010;2024-01-11T17:08:56;134.43;;;17.57;;
20443;SDS011;10381;53.730;10.010;2024-01-11T17:12:57;20.10;;;10.97;;
20443;SDS011;10381;53.730;10.010;2024-01-11T17:16:57;25.42;;;10.98;;
20443;SDS011;10381;53.730;10.010;2024-01-11T17:20:59;18.98;;;10.85;;
20443;SDS011;10381;53.730;10.010;2024-01-11T17:24:59;31.05;;;10.93;;
20443;SDS011;10381;53.730;10.010;2024-01-11T17:29:00;19.80;;;11.13;;
20443;SDS011;10381;53.730;10.010;2024-01-11T17:33:00;32.05;;;10.90;;
20443;SDS011;10381;53.730;10.010;2024-01-11T17:37:00;23.38;;;12.20;;
20443;SDS011;10381;53.730;10.010;2024-01-11T17:41:00;33.57;;;12.80;;
20443;SDS011;10381;53.730;10.010;2024-01-11T17:45:01;35.87;;;14.60;;
20443;SDS011;10381;53.730;10.010;2024-01-11T17:49:01;35.30;;;15.70;;
20443;SDS011;10381;53.730;10.010;2024-01-11T17:53:01;37.60;;;15.15;;
20443;SDS011;10381;53.730;10.010;2024-01-11T17:57:02;68.97;;;16.83;;
20443;SDS011;10381;53.730;10.010;2024-01-11T18:01:02;32.08;;;11.65;;
20443;SDS011;10381;53.730;10.010;2024-01-11T18:05:03;27.10;;;11.93;;
20443;SDS011;10381;53.730;10.010;2024-01-11T18:09:04;25.02;;;10.38;;
20443;SDS011;10381;53.730;10.010;2024-01-11T18:13:04;27.33;;;9.95;;
20443;SDS011;10381;53.730;10.010;2024-01-11T18:17:05;17.03;;;8.30;;
20443;SDS011;10381;53.730;10.010;2024-01-11T18:21:05;22.37;;;8.93;;
20443;SDS011;10381;53.730;10.010;2024-01-11T18:25:05;21.70;;;10.40;;
20443;SDS011;10381;53.730;10.010;2024-01-11T18:29:06;26.00;;;10.55;;
20443;SDS011;10381;53.730;10.010;2024-01-11T18:33:06;26.73;;;9.50;;
20443;SDS011;10381;53.730;10.010;2024-01-11T18:37:07;19.07;;;9.17;;
20443;SDS011;10381;53.730;10.010;2024-01-11T18:41:08;17.30;;;9.77;;
20443;SDS011;10381;53.730;10.010;2024-01-11T18:45:08;38.77;;;10.17;;
20443;SDS011;10381;53.730;10.010;2024-01-11T18:49:09;32.10;;;9.48;;
20443;SDS011;10381;53.730;10.010;2024-01-11T18:53:09;30.52;;;13.18;;
20443;SDS011;10381;53.730;10.010;2024-01-11T18:57:11;20.52;;;9.95;;
20443;SDS011;10381;53.730;10.010;2024-01-11T19:01:14;30.58;;;11.57;;
20443;SDS011;10381;53.730;10.010;2024-01-11T19:05:14;17.07;;;8.90;;
20443;SDS011;10381;53.730;10.010;2024-01-11T19:09:16;27.23;;;11.80;;
20443;SDS011;10381;53.730;10.010;2024-01-11T19:13:17;21.33;;;9.60;;
20443;SDS011;10381;53.730;10.010;2024-01-11T19:17:17;18.80;;;9.33;;
20443;SDS011;10381;53.730;10.010;2024-01-11T19:21:17;16.77;;;8.50;;
20443;SDS011;10381;53.730;10.010;2024-01-11T19:25:18;19.77;;;9.77;;
20443;SDS011;10381;53.730;10.010;2024-01-11T19:29:18;33.67;;;10.63;;
20443;SDS011;10381;53.730;10.010;2024-01-11T19:33:19;24.88;;;10.90;;
20443;SDS011;10381;53.730;10.010;2024-01-11T19:37:19;19.50;;;9.63;;
20443;SDS011;10381;53.730;10.010;2024-01-11T19:41:20;22.50;;;9.50;;
20443;SDS011;10381;53.730;10.010;2024-01-11T19:45:24;20.33;;;9.25;;
20443;SDS011;10381;53.730;10.010;2024-01-11T19:49:24;13.83;;;8.97;;
20443;SDS011;10381;53.730;10.010;2024-01-11T19:53:24;14.77;;;9.05;;
20443;SDS011;10381;53.730;10.010;2024-01-11T19:57:24;18.23;;;9.23;;
20443;SDS011;10381;53.730;10.010;2024-01-11T20:01:25;20.73;;;9.65;;
20443;SDS011;10381;53.730;10.010;2024-01-11T20:05:25;65.70;;;12.73;;
20443;SDS011;10381;53.730;10.010;2024-01-11T20:09:25;20.53;;;10.90;;
20443;SDS011;10381;53.730;10.010;2024-01-11T20:13:26;20.67;;;9.55;;
20443;SDS011;10381;53.730;10.010;2024-01-11T20:17:27;21.13;;;10.80;;
20443;SDS011;10381;53.730;10.010;2024-01-11T20:21:28;35.80;;;12.02;;
20443;SDS011;10381;53.730;10.010;2024-01-11T20:25:28;64.95;;;19.42;;
20443;SDS011;10381;53.730;10.010;2024-01-11T20:29:29;37.42;;;13.63;;
20443;SDS011;10381;53.730;10.010;2024-01-11T20:33:30;35.72;;;12.48;;
20443;SDS011;10381;53.730;10.010;2024-01-11T20:37:30;26.63;;;10.20;;
20443;SDS011;10381;53.730;10.010;2024-01-11T20:41:31;38.47;;;14.27;;
20443;SDS011;10381;53.730;10.010;2024-01-11T20:45:31;30.45;;;11.50;;
20443;SDS011;10381;53.730;10.010;2024-01-11T20:49:32;32.90;;;13.23;;
20443;SDS011;10381;53.730;10.010;2024-01-11T20:53:33;20.35;;;10.23;;
20443;SDS011;10381;53.730;10.010;2024-01-11T20:57:33;28.80;;;11.43;;
20443;SDS011;10381;53.730;10.010;2024-01-11T21:01:33;32.23;;;11.93;;
20443;SDS011;10381;53.730;10.010;2024-01-11T21:05:34;27.08;;;9.45;;
20443;SDS011;10381;53.730;10.010;2024-01-11T21:09:34;26.63;;;11.95;;
20443;SDS011;10381;53.730;10.010;2024-01-11T21:13:34;32.20;;;12.20;;
20443;SDS011;10381;53.730;10.010;2024-01-11T21:17:35;30.37;;;12.80;;
20443;SDS011;10381;53.730;10.010;2024-01-11T21:21:39;20.98;;;12.23;;
20443;SDS011;10381;53.730;10.010;2024-01-11T21:25:40;21.58;;;11.75;;
20443;SDS011;10381;53.730;10.010;2024-01-11T21:29:40;25.23;;;10.85;;
20443;SDS011;10381;53.730;10.010;2024-01-11T21:33:42;22.85;;;10.00;;
20443;SDS011;10381;53.730;10.010;2024-01-11T21:37:46;24.17;;;9.05;;
20443;SDS011;10381;53.730;10.010;2024-01-11T21:41:47;32.05;;;11.93;;
20443;SDS011;10381;53.730;10.010;2024-01-11T21:45:49;12.00;;;9.02;;
20443;SDS011;10381;53.730;10.010;2024-01-11T21:49:49;24.23;;;11.90;;
20443;SDS011;10381;53.730;10.010;2024-01-11T21:53:49;19.30;;;10.07;;
20443;SDS011;10381;53.730;10.010;2024-01-11T21:57:56;83.53;;;16.55;;
20443;SDS011;10381;53.730;10.010;2024-01-11T22:01:57;33.40;;;11.93;;
20443;SDS011;10381;53.730;10.010;2024-01-11T22:05:57;26.47;;;10.33;;
20443;SDS011;10381;53.730;10.010;2024-01-11T22:09:57;29.63;;;14.77;;
20443;SDS011;10381;53.730;10.010;2024-01-11T22:13:58;31.27;;;12.97;;
20443;SDS011;10381;53.730;10.010;2024-01-11T22:17:58;21.15;;;11.25;;
20443;SDS011;10381;53.730;10.010;2024-01-11T22:21:58;22.07;;;11.33;;
20443;SDS011;10381;53.730;10.010;2024-01-11T22:25:59;21.27;;;11.93;;
20443;SDS011;10381;53.730;10.010;2024-01-11T22:29:59;31.27;;;13.80;;
20443;SDS011;10381;53.730;10.010;2024-01-11T22:34:00;34.90;;;15.75;;
20443;SDS011;10381;53.730;10.010;2024-01-11T22:38:01;28.98;;;13.23;;
20443;SDS011;10381;53.730;10.010;2024-01-11T22:42:01;28.60;;;13.50;;
20443;SDS011;10381;53.730;10.010;2024-01-11T22:46:01;24.67;;;13.05;;
20443;SDS011;10381;53.730;10.010;2024-01-11T22:50:02;29.73;;;13.15;;
20443;SDS011;10381;53.730;10.010;2024-01-11T22:54:03;24.08;;;12.20;;
20443;SDS011;10381;53.730;10.010;2024-01-11T22:58:03;21.10;;;11.88;;
20443;SDS011;10381;53.730;10.010;2024-01-11T23:02:04;20.00;;;11.20;;
20443;SDS011;10381;53.730;10.010;2024-01-11T23:06:05;22.77;;;11.13;;
20443;SDS011;10381;53.730;10.010;2024-01-11T23:10:06;26.40;;;11.73;;
20443;SDS011;10381;53.730;10.010;2024-01-11T23:14:07;19.55;;;10.30;;
20443;SDS011;10381;53.730;10.010;2024-01-11T23:18:08;16.13;;;10.05;;
20443;SDS011;10381;53.730;10.010;2024-01-11T23:22:08;31.85;;;10.77;;